createdAt,value
2023-12-30T00:00:20.394Z,0
2023-12-30T00:01:17.423Z,0
2023-12-30T00:02:17.334Z,0
2023-12-30T00:03:17.351Z,0
2023-12-30T00:04:17.351Z,0
2023-12-30T00:05:17.324Z,0
2023-12-30T00:06:17.354Z,0
2023-12-30T00:07:17.328Z,0
2023-12-30T00:08:17.333Z,0
2023-12-30T00:09:17.352Z,0
2023-12-30T00:10:17.424Z,0
2023-12-30T00:11:17.375Z,0
2023-12-30T00:12:17.340Z,0
2023-12-30T00:13:17.399Z,0
2023-12-30T00:14:17.746Z,0
2023-12-30T00:15:17.354Z,0
2023-12-30T00:16:17.350Z,0
2023-12-30T00:17:17.628Z,0
2023-12-30T00:18:20.828Z,0
2023-12-30T00:19:23.917Z,0
2023-12-30T00:21:17.396Z,0
2023-12-30T00:22:17.340Z,0
2023-12-30T00:23:17.337Z,0
2023-12-30T00:24:17.330Z,0
2023-12-30T00:25:17.409Z,0
2023-12-30T00:26:17.329Z,0
2023-12-30T00:27:17.345Z,0
2023-12-30T00:28:17.398Z,0
2023-12-30T00:29:17.344Z,0
2023-12-30T00:30:17.344Z,0
2023-12-30T00:31:17.346Z,0
2023-12-30T00:32:17.333Z,0
2023-12-30T00:33:17.416Z,0
2023-12-30T00:34:17.391Z,0
2023-12-30T00:35:17.532Z,0
2023-12-30T00:36:17.322Z,0
2023-12-30T00:37:17.345Z,0
2023-12-30T00:38:23.950Z,0
2023-12-30T00:39:20.764Z,0
2023-12-30T00:40:27.384Z,0
2023-12-30T00:42:17.408Z,0
2023-12-30T00:43:17.360Z,0
2023-12-30T00:44:17.365Z,0
2023-12-30T00:45:17.333Z,0
2023-12-30T00:46:17.349Z,0
2023-12-30T00:47:17.329Z,0
2023-12-30T00:48:17.428Z,0
2023-12-30T00:49:17.460Z,0
2023-12-30T00:50:17.406Z,0
2023-12-30T00:51:17.338Z,0
2023-12-30T00:52:17.353Z,0
2023-12-30T00:53:17.345Z,0
2023-12-30T00:54:17.330Z,0
2023-12-30T00:55:17.374Z,0
2023-12-30T00:56:17.336Z,0
2023-12-30T00:57:17.376Z,0
2023-12-30T00:58:17.350Z,0
2023-12-30T00:59:17.757Z,0
2023-12-30T01:00:20.834Z,0
2023-12-30T01:01:23.885Z,0
2023-12-30T01:03:17.577Z,0
2023-12-30T01:04:17.357Z,0
2023-12-30T01:05:17.420Z,0
2023-12-30T01:06:17.345Z,0
2023-12-30T01:07:17.371Z,0
2023-12-30T01:08:17.397Z,0
2023-12-30T01:09:17.345Z,0
2023-12-30T01:10:17.389Z,0
2023-12-30T01:11:17.336Z,0
2023-12-30T01:12:17.333Z,0
2023-12-30T01:13:17.339Z,0
2023-12-30T01:14:17.344Z,0
2023-12-30T01:15:17.332Z,0
2023-12-30T01:16:17.342Z,0
2023-12-30T01:17:17.397Z,0
2023-12-30T01:18:17.442Z,0
2023-12-30T01:19:17.417Z,0
2023-12-30T01:20:17.782Z,0
2023-12-30T01:21:20.907Z,0
2023-12-30T01:22:23.946Z,0
2023-12-30T01:24:17.373Z,0
2023-12-30T01:25:17.353Z,0
2023-12-30T01:26:17.349Z,0
2023-12-30T01:27:17.333Z,0
2023-12-30T01:28:17.419Z,0
2023-12-30T01:29:17.339Z,0
2023-12-30T01:30:17.350Z,0
2023-12-30T01:31:17.496Z,0
2023-12-30T01:32:17.324Z,0
2023-12-30T01:33:17.429Z,0
2023-12-30T01:34:17.420Z,0
2023-12-30T01:35:17.331Z,0
2023-12-30T01:36:17.335Z,0
2023-12-30T01:37:17.372Z,0
2023-12-30T01:38:17.333Z,0
2023-12-30T01:39:17.333Z,0
2023-12-30T01:40:17.344Z,0
2023-12-30T01:41:17.928Z,0
2023-12-30T01:42:21.087Z,0
2023-12-30T01:43:24.453Z,0
2023-12-30T01:45:17.335Z,0
2023-12-30T01:46:17.353Z,0
2023-12-30T01:47:17.428Z,0
2023-12-30T01:48:17.459Z,0
2023-12-30T01:49:17.364Z,0
2023-12-30T01:50:17.381Z,0
2023-12-30T01:51:23.625Z,0
2023-12-30T01:52:17.579Z,0
2023-12-30T01:53:17.395Z,0
2023-12-30T01:54:17.336Z,0
2023-12-30T01:55:17.546Z,0
2023-12-30T01:56:17.328Z,0
2023-12-30T01:57:17.357Z,0
2023-12-30T01:58:17.460Z,0
2023-12-30T01:59:17.333Z,0
2023-12-30T02:00:17.339Z,0
2023-12-30T02:01:17.359Z,0
2023-12-30T02:02:18.015Z,0
2023-12-30T02:03:21.167Z,0
2023-12-30T02:04:24.119Z,0
2023-12-30T02:06:17.339Z,0
2023-12-30T02:07:17.352Z,0
2023-12-30T02:08:17.338Z,0
2023-12-30T02:09:17.349Z,0
2023-12-30T02:10:17.342Z,0
2023-12-30T02:11:17.444Z,0
2023-12-30T02:12:17.354Z,0
2023-12-30T02:13:17.703Z,0
2023-12-30T02:14:17.329Z,0
2023-12-30T02:15:17.344Z,0
2023-12-30T02:16:17.373Z,0
2023-12-30T02:17:17.337Z,0
2023-12-30T02:18:17.377Z,0
2023-12-30T02:19:17.369Z,0
2023-12-30T02:20:17.330Z,0
2023-12-30T02:21:17.335Z,0
2023-12-30T02:22:17.360Z,0
2023-12-30T02:23:17.334Z,0
2023-12-30T02:24:17.333Z,0
2023-12-30T02:25:18.622Z,0
2023-12-30T02:26:21.683Z,0
2023-12-30T02:27:25.126Z,0
2023-12-30T02:29:17.534Z,0
2023-12-30T02:30:17.392Z,0
2023-12-30T02:31:17.416Z,0
2023-12-30T02:32:17.357Z,0
2023-12-30T02:33:17.412Z,0
2023-12-30T02:34:17.556Z,0
2023-12-30T02:35:17.335Z,0
2023-12-30T02:36:17.340Z,0
2023-12-30T02:37:17.392Z,0
2023-12-30T02:38:17.347Z,0
2023-12-30T02:39:17.341Z,0
2023-12-30T02:40:17.352Z,0
2023-12-30T02:41:17.338Z,0
2023-12-30T02:42:17.337Z,0
2023-12-30T02:43:17.369Z,0
2023-12-30T02:44:17.330Z,0
2023-12-30T02:45:17.340Z,0
2023-12-30T02:46:18.610Z,0
2023-12-30T02:47:21.945Z,0
2023-12-30T02:48:23.617Z,0
2023-12-30T02:49:17.465Z,0
2023-12-30T02:50:17.573Z,0
2023-12-30T02:51:17.336Z,0
2023-12-30T02:52:17.347Z,0
2023-12-30T02:53:17.512Z,0
2023-12-30T02:54:17.332Z,0
2023-12-30T02:55:17.373Z,0
2023-12-30T02:56:17.338Z,0
2023-12-30T02:57:17.326Z,0
2023-12-30T02:58:17.396Z,0
2023-12-30T02:59:17.351Z,0
2023-12-30T03:00:17.348Z,0
2023-12-30T03:01:17.414Z,0
2023-12-30T03:02:17.327Z,0
2023-12-30T03:03:17.346Z,0
2023-12-30T03:04:17.536Z,0
2023-12-30T03:05:17.651Z,0
2023-12-30T03:06:17.369Z,0
2023-12-30T03:07:18.813Z,0
2023-12-30T03:08:21.869Z,0
2023-12-30T03:09:23.663Z,0
2023-12-30T03:10:17.386Z,0
2023-12-30T03:11:17.722Z,0
2023-12-30T03:12:17.332Z,0
2023-12-30T03:13:17.364Z,0
2023-12-30T03:14:17.373Z,0
2023-12-30T03:15:17.324Z,0
2023-12-30T03:16:17.393Z,0
2023-12-30T03:17:17.339Z,0
2023-12-30T03:18:17.445Z,0
2023-12-30T03:19:17.372Z,0
2023-12-30T03:20:17.330Z,0
2023-12-30T03:21:17.335Z,0
2023-12-30T03:22:17.353Z,0
2023-12-30T03:23:17.365Z,0
2023-12-30T03:24:17.335Z,0
2023-12-30T03:25:17.366Z,0
2023-12-30T03:26:17.335Z,0
2023-12-30T03:27:17.351Z,0
2023-12-30T03:28:19.206Z,0
2023-12-30T03:29:21.906Z,0
2023-12-30T03:30:23.724Z,0
2023-12-30T03:31:17.331Z,0
2023-12-30T03:32:17.531Z,0
2023-12-30T03:33:17.411Z,0
2023-12-30T03:34:17.470Z,0
2023-12-30T03:35:17.375Z,0
2023-12-30T03:36:17.343Z,0
2023-12-30T03:37:17.374Z,0
2023-12-30T03:38:17.356Z,0
2023-12-30T03:39:17.352Z,0
2023-12-30T03:40:17.344Z,0
2023-12-30T03:41:17.328Z,0
2023-12-30T03:42:17.350Z,0
2023-12-30T03:43:17.364Z,0
2023-12-30T03:44:17.354Z,0
2023-12-30T03:45:17.356Z,0
2023-12-30T03:46:17.375Z,0
2023-12-30T03:47:17.342Z,0
2023-12-30T03:48:17.400Z,0
2023-12-30T03:49:19.076Z,0
2023-12-30T03:50:21.987Z,0
2023-12-30T03:51:23.770Z,0
2023-12-30T03:52:17.397Z,0
2023-12-30T03:53:17.332Z,0
2023-12-30T03:54:17.382Z,0
2023-12-30T03:55:17.351Z,0
2023-12-30T03:56:17.336Z,0
2023-12-30T03:57:17.332Z,0
2023-12-30T03:58:17.353Z,0
2023-12-30T03:59:17.372Z,0
2023-12-30T04:00:17.324Z,0
2023-12-30T04:01:17.382Z,0
2023-12-30T04:02:17.354Z,0
2023-12-30T04:03:17.442Z,0
2023-12-30T04:04:17.343Z,0
2023-12-30T04:05:17.357Z,0
2023-12-30T04:06:17.323Z,0
2023-12-30T04:07:17.339Z,0
2023-12-30T04:08:17.338Z,0
2023-12-30T04:09:17.346Z,0
2023-12-30T04:10:19.120Z,0
2023-12-30T04:11:22.202Z,0
2023-12-30T04:12:23.951Z,0
2023-12-30T04:13:17.361Z,0
2023-12-30T04:14:17.328Z,0
2023-12-30T04:15:17.335Z,0
2023-12-30T04:16:17.366Z,0
2023-12-30T04:17:17.341Z,0
2023-12-30T04:18:17.444Z,0
2023-12-30T04:19:17.458Z,0
2023-12-30T04:20:17.429Z,0
2023-12-30T04:21:17.346Z,0
2023-12-30T04:22:17.469Z,0
2023-12-30T04:23:17.605Z,0
2023-12-30T04:24:17.658Z,0
2023-12-30T04:25:17.810Z,0
2023-12-30T04:26:17.333Z,0
2023-12-30T04:27:17.333Z,0
2023-12-30T04:28:17.407Z,0
2023-12-30T04:29:17.347Z,0
2023-12-30T04:30:17.368Z,0
2023-12-30T04:31:19.162Z,0
2023-12-30T04:32:22.406Z,0
2023-12-30T04:33:24.086Z,0
2023-12-30T04:34:17.411Z,0
2023-12-30T04:35:17.338Z,0
2023-12-30T04:36:17.366Z,0
2023-12-30T04:37:17.359Z,0
2023-12-30T04:38:17.349Z,0
2023-12-30T04:39:17.356Z,0
2023-12-30T04:40:17.373Z,0
2023-12-30T04:41:17.404Z,0
2023-12-30T04:42:17.461Z,0
2023-12-30T04:43:17.687Z,0
2023-12-30T04:44:17.593Z,0
2023-12-30T04:45:17.867Z,0
2023-12-30T04:46:17.353Z,0
2023-12-30T04:47:17.335Z,0
2023-12-30T04:48:17.417Z,0
2023-12-30T04:49:17.403Z,0
2023-12-30T04:50:17.349Z,0
2023-12-30T04:51:17.335Z,0
2023-12-30T04:52:19.870Z,0
2023-12-30T04:53:22.341Z,0
2023-12-30T04:54:24.188Z,0
2023-12-30T04:55:17.351Z,0
2023-12-30T04:56:17.347Z,0
2023-12-30T04:57:17.334Z,0
2023-12-30T04:58:17.429Z,0
2023-12-30T04:59:17.362Z,0
2023-12-30T05:00:20.284Z,0
2023-12-30T05:01:17.416Z,0
2023-12-30T05:02:17.348Z,0
2023-12-30T05:03:17.409Z,0
2023-12-30T05:04:17.351Z,0
2023-12-30T05:05:17.353Z,0
2023-12-30T05:06:17.740Z,0
2023-12-30T05:07:17.346Z,0
2023-12-30T05:08:17.340Z,0
2023-12-30T05:09:17.501Z,0
2023-12-30T05:10:17.722Z,0
2023-12-30T05:11:17.366Z,0
2023-12-30T05:12:17.337Z,0
2023-12-30T05:13:17.359Z,0
2023-12-30T05:14:17.369Z,0
2023-12-30T05:15:20.044Z,0
2023-12-30T05:16:22.668Z,0
2023-12-30T05:18:17.377Z,0
2023-12-30T05:19:17.404Z,0
2023-12-30T05:20:17.333Z,0
2023-12-30T05:21:17.473Z,0
2023-12-30T05:22:17.567Z,0
2023-12-30T05:23:17.330Z,0
2023-12-30T05:24:17.331Z,0
2023-12-30T05:25:17.525Z,0
2023-12-30T05:26:17.363Z,0
2023-12-30T05:27:17.329Z,0
2023-12-30T05:28:17.337Z,0
2023-12-30T05:29:17.337Z,0
2023-12-30T05:30:17.430Z,0
2023-12-30T05:31:17.401Z,0
2023-12-30T05:32:17.337Z,0
2023-12-30T05:33:17.436Z,0
2023-12-30T05:34:17.423Z,0
2023-12-30T05:35:17.398Z,0
2023-12-30T05:36:20.026Z,0
2023-12-30T05:37:22.758Z,0
2023-12-30T05:39:17.336Z,0
2023-12-30T05:40:17.359Z,0
2023-12-30T05:41:17.341Z,0
2023-12-30T05:42:17.336Z,0
2023-12-30T05:43:17.554Z,0
2023-12-30T05:44:17.342Z,0
2023-12-30T05:45:17.323Z,0
2023-12-30T05:46:17.420Z,0
2023-12-30T05:47:17.340Z,0
2023-12-30T05:48:17.428Z,0
2023-12-30T05:49:17.368Z,0
2023-12-30T05:50:17.327Z,0
2023-12-30T05:51:17.352Z,0
2023-12-30T05:52:17.362Z,0
2023-12-30T05:53:17.351Z,0
2023-12-30T05:54:17.333Z,0
2023-12-30T05:55:17.343Z,0
2023-12-30T05:56:17.355Z,0
2023-12-30T05:57:19.861Z,0
2023-12-30T05:58:22.760Z,0
2023-12-30T06:00:17.323Z,0
2023-12-30T06:01:17.445Z,0
2023-12-30T06:02:17.323Z,0
2023-12-30T06:03:17.334Z,0
2023-12-30T06:04:17.706Z,0
2023-12-30T06:05:17.334Z,0
2023-12-30T06:06:17.356Z,0
2023-12-30T06:07:17.456Z,0
2023-12-30T06:08:17.328Z,0
2023-12-30T06:09:17.325Z,0
2023-12-30T06:10:17.348Z,0
2023-12-30T06:11:17.336Z,0
2023-12-30T06:12:17.350Z,0
2023-12-30T06:13:17.364Z,0
2023-12-30T06:14:17.378Z,0
2023-12-30T06:15:17.325Z,0
2023-12-30T06:16:17.352Z,0
2023-12-30T06:17:17.343Z,0
2023-12-30T06:18:20.107Z,0
2023-12-30T06:19:22.932Z,0
2023-12-30T06:21:17.339Z,0
2023-12-30T06:22:17.363Z,0
2023-12-30T06:23:17.345Z,0
2023-12-30T06:24:17.327Z,0
2023-12-30T06:25:17.637Z,0
2023-12-30T06:26:17.324Z,0
2023-12-30T06:27:17.354Z,0
2023-12-30T06:28:17.560Z,0
2023-12-30T06:29:17.399Z,0
2023-12-30T06:30:17.392Z,0
2023-12-30T06:31:17.348Z,0
2023-12-30T06:32:17.353Z,0
2023-12-30T06:33:17.413Z,0
2023-12-30T06:34:17.361Z,0
2023-12-30T06:35:17.324Z,0
2023-12-30T06:36:17.328Z,0
2023-12-30T06:37:17.390Z,0
2023-12-30T06:38:17.337Z,0
2023-12-30T06:39:20.118Z,0
2023-12-30T06:40:23.133Z,0
2023-12-30T06:42:17.368Z,0
2023-12-30T06:43:17.357Z,0
2023-12-30T06:44:17.329Z,0
2023-12-30T06:45:17.361Z,0
2023-12-30T06:46:17.330Z,0
2023-12-30T06:47:17.340Z,0
2023-12-30T06:48:17.345Z,0
2023-12-30T06:49:17.623Z,0
2023-12-30T06:50:18.902Z,0
2023-12-30T06:51:17.333Z,0
2023-12-30T06:52:17.369Z,0
2023-12-30T06:53:17.318Z,0
2023-12-30T06:54:17.324Z,0
2023-12-30T06:55:21.271Z,0
2023-12-30T06:56:17.335Z,0
2023-12-30T06:57:17.326Z,0
2023-12-30T06:58:17.324Z,0
2023-12-30T06:59:17.328Z,0
2023-12-30T07:00:20.160Z,0
2023-12-30T07:01:23.223Z,0
2023-12-30T07:03:17.370Z,0
2023-12-30T07:04:17.389Z,0
2023-12-30T07:05:17.350Z,0
2023-12-30T07:06:17.327Z,0
2023-12-30T07:07:17.354Z,0
2023-12-30T07:08:17.349Z,0
2023-12-30T07:09:17.334Z,0
2023-12-30T07:10:17.369Z,0
2023-12-30T07:11:17.331Z,0
2023-12-30T07:12:17.324Z,0
2023-12-30T07:13:17.358Z,0
2023-12-30T07:14:17.331Z,0
2023-12-30T07:15:17.353Z,0
2023-12-30T07:16:17.365Z,0
2023-12-30T07:17:17.382Z,0
2023-12-30T07:18:17.407Z,0
2023-12-30T07:19:17.614Z,0
2023-12-30T07:20:17.359Z,0
2023-12-30T07:21:21.766Z,0
2023-12-30T07:22:23.329Z,0
2023-12-30T07:24:17.329Z,0
2023-12-30T07:25:17.453Z,0
2023-12-30T07:26:17.328Z,0
2023-12-30T07:27:17.323Z,0
2023-12-30T07:28:17.401Z,0
2023-12-30T07:29:17.358Z,0
2023-12-30T07:30:17.373Z,0
2023-12-30T07:31:17.423Z,0
2023-12-30T07:32:17.792Z,0
2023-12-30T07:33:17.436Z,0
2023-12-30T07:34:17.536Z,0
2023-12-30T07:35:17.319Z,0
2023-12-30T07:36:17.479Z,0
2023-12-30T07:37:17.358Z,0
2023-12-30T07:38:17.586Z,0
2023-12-30T07:39:17.658Z,0
2023-12-30T07:40:17.737Z,0
2023-12-30T07:41:17.369Z,0
2023-12-30T07:42:23.625Z,0
2023-12-30T07:43:23.285Z,0
2023-12-30T07:45:17.334Z,0
2023-12-30T07:46:17.434Z,0
2023-12-30T07:47:17.343Z,0
2023-12-30T07:48:17.356Z,0
2023-12-30T07:49:17.364Z,0
2023-12-30T07:50:17.332Z,0
2023-12-30T07:51:17.359Z,0
2023-12-30T07:52:17.390Z,0
2023-12-30T07:53:17.464Z,0
2023-12-30T07:54:17.331Z,0
2023-12-30T07:55:17.443Z,0
2023-12-30T07:56:17.641Z,0
2023-12-30T07:57:17.500Z,0
2023-12-30T07:58:17.447Z,0
2023-12-30T07:59:17.590Z,0
2023-12-30T08:00:17.647Z,0
2023-12-30T08:01:17.770Z,0
2023-12-30T08:02:17.750Z,0
2023-12-30T08:03:20.576Z,0
2023-12-30T08:04:23.540Z,0
2023-12-30T08:06:17.430Z,0
2023-12-30T08:07:17.335Z,0
2023-12-30T08:08:17.331Z,0
2023-12-30T08:09:17.350Z,0
2023-12-30T08:10:17.339Z,0
2023-12-30T08:11:17.335Z,0
2023-12-30T08:12:17.360Z,0
2023-12-30T08:13:17.374Z,0
2023-12-30T08:14:17.335Z,0
2023-12-30T08:15:17.329Z,0
2023-12-30T08:16:17.348Z,0
2023-12-30T08:17:17.356Z,0
2023-12-30T08:18:17.409Z,0
2023-12-30T08:19:17.346Z,0
2023-12-30T08:20:17.559Z,0
2023-12-30T08:21:17.344Z,0
2023-12-30T08:22:17.333Z,0
2023-12-30T08:23:17.536Z,0
2023-12-30T08:24:20.719Z,0
2023-12-30T08:25:23.620Z,0
2023-12-30T08:27:17.451Z,0
2023-12-30T08:28:17.353Z,0
2023-12-30T08:29:17.329Z,0
2023-12-30T08:30:17.400Z,0
2023-12-30T08:31:17.413Z,0
2023-12-30T08:32:17.344Z,0
2023-12-30T08:33:17.363Z,0
2023-12-30T08:34:17.403Z,0
2023-12-30T08:35:17.335Z,0
2023-12-30T08:36:17.331Z,0
2023-12-30T08:37:17.358Z,0
2023-12-30T08:38:17.341Z,0
2023-12-30T08:39:17.338Z,0
2023-12-30T08:40:17.357Z,0
2023-12-30T08:41:17.675Z,0
2023-12-30T08:42:17.331Z,0
2023-12-30T08:43:17.402Z,0
2023-12-30T08:44:17.626Z,0
2023-12-30T08:45:20.866Z,0
2023-12-30T08:46:23.848Z,0
2023-12-30T08:48:17.422Z,0
2023-12-30T08:49:17.527Z,0
2023-12-30T08:50:17.336Z,0
2023-12-30T08:51:17.325Z,0
2023-12-30T08:52:17.367Z,0
2023-12-30T08:53:17.334Z,0
2023-12-30T08:54:17.333Z,0
2023-12-30T08:55:17.407Z,0
2023-12-30T08:56:17.336Z,0
2023-12-30T08:57:17.338Z,0
2023-12-30T08:58:17.359Z,0
2023-12-30T08:59:17.348Z,0
2023-12-30T09:00:17.338Z,0
2023-12-30T09:01:17.407Z,0
2023-12-30T09:02:17.712Z,0
2023-12-30T09:03:20.655Z,0
2023-12-30T09:04:17.397Z,0
2023-12-30T09:05:17.610Z,0
2023-12-30T09:06:20.733Z,0
2023-12-30T09:07:23.821Z,0
2023-12-30T09:09:17.425Z,0
2023-12-30T09:10:17.341Z,0
2023-12-30T09:11:17.331Z,0
2023-12-30T09:12:17.394Z,0
2023-12-30T09:13:17.340Z,0
2023-12-30T09:14:17.336Z,0
2023-12-30T09:15:17.345Z,0
2023-12-30T09:16:17.452Z,0
2023-12-30T09:17:17.375Z,0
2023-12-30T09:18:17.476Z,0
2023-12-30T09:19:17.450Z,0
2023-12-30T09:20:17.361Z,0
2023-12-30T09:21:17.350Z,0
2023-12-30T09:22:17.387Z,0
2023-12-30T09:23:17.333Z,0
2023-12-30T09:24:17.337Z,0
2023-12-30T09:25:17.348Z,0
2023-12-30T09:26:17.731Z,0
2023-12-30T09:27:20.838Z,0
2023-12-30T09:28:23.953Z,0
2023-12-30T09:30:17.332Z,0
2023-12-30T09:31:17.364Z,0
2023-12-30T09:32:17.363Z,0
2023-12-30T09:33:17.405Z,0
2023-12-30T09:34:26.547Z,0
2023-12-30T09:35:17.347Z,0
2023-12-30T09:36:17.337Z,0
2023-12-30T09:37:17.356Z,0
2023-12-30T09:38:17.344Z,0
2023-12-30T09:39:17.393Z,0
2023-12-30T09:40:17.401Z,0
2023-12-30T09:41:17.466Z,0
2023-12-30T09:42:17.355Z,0
2023-12-30T09:43:17.366Z,0
2023-12-30T09:44:17.353Z,0
2023-12-30T09:45:17.364Z,0
2023-12-30T09:46:17.440Z,0
2023-12-30T09:47:17.357Z,0
2023-12-30T09:48:18.220Z,0
2023-12-30T09:49:21.505Z,0
2023-12-30T09:50:24.208Z,0
2023-12-30T09:52:17.353Z,0
2023-12-30T09:53:17.335Z,0
2023-12-30T09:54:17.351Z,0
2023-12-30T09:55:17.369Z,0
2023-12-30T09:56:17.328Z,0
2023-12-30T09:57:17.400Z,0
2023-12-30T09:58:17.392Z,0
2023-12-30T09:59:17.603Z,0
2023-12-30T10:00:17.365Z,0
2023-12-30T10:01:17.383Z,0
2023-12-30T10:02:17.463Z,0
2023-12-30T10:03:17.461Z,0
2023-12-30T10:04:17.384Z,0
2023-12-30T10:05:17.364Z,0
2023-12-30T10:06:17.351Z,0
2023-12-30T10:07:17.382Z,0
2023-12-30T10:08:17.351Z,0
2023-12-30T10:09:18.157Z,0
2023-12-30T10:10:21.558Z,0
2023-12-30T10:11:24.202Z,0
2023-12-30T10:13:17.376Z,0
2023-12-30T10:14:17.365Z,0
2023-12-30T10:15:17.330Z,0
2023-12-30T10:16:17.362Z,0
2023-12-30T10:17:17.334Z,0
2023-12-30T10:18:17.440Z,0
2023-12-30T10:19:17.474Z,0
2023-12-30T10:20:17.674Z,0
2023-12-30T10:21:17.347Z,0
2023-12-30T10:22:17.380Z,0
2023-12-30T10:23:17.388Z,0
2023-12-30T10:24:17.366Z,0
2023-12-30T10:25:17.351Z,0
2023-12-30T10:26:17.343Z,0
2023-12-30T10:27:17.327Z,0
2023-12-30T10:28:17.364Z,0
2023-12-30T10:29:17.356Z,0
2023-12-30T10:30:18.231Z,0
2023-12-30T10:31:21.345Z,0
2023-12-30T10:32:24.735Z,0
2023-12-30T10:34:17.373Z,0
2023-12-30T10:35:17.346Z,0
2023-12-30T10:36:17.344Z,0
2023-12-30T10:37:17.417Z,0
2023-12-30T10:38:17.357Z,0
2023-12-30T10:39:17.324Z,0
2023-12-30T10:40:17.376Z,0
2023-12-30T10:41:17.345Z,0
2023-12-30T10:42:17.339Z,0
2023-12-30T10:43:17.357Z,0
2023-12-30T10:44:17.469Z,0
2023-12-30T10:45:17.343Z,0
2023-12-30T10:46:17.360Z,0
2023-12-30T10:47:17.491Z,0
2023-12-30T10:48:17.398Z,0
2023-12-30T10:49:17.409Z,0
2023-12-30T10:50:17.470Z,0
2023-12-30T10:51:18.294Z,0
2023-12-30T10:52:21.534Z,0
2023-12-30T10:53:24.428Z,0
2023-12-30T10:55:17.357Z,0
2023-12-30T10:56:17.334Z,0
2023-12-30T10:57:17.320Z,0
2023-12-30T10:58:17.332Z,0
2023-12-30T10:59:17.513Z,0
2023-12-30T11:00:17.465Z,0
2023-12-30T11:01:17.528Z,0
2023-12-30T11:02:18.104Z,0
2023-12-30T11:03:17.352Z,0
2023-12-30T11:04:17.381Z,0
2023-12-30T11:05:17.431Z,0
2023-12-30T11:06:17.383Z,0
2023-12-30T11:07:17.362Z,0
2023-12-30T11:08:17.681Z,0
2023-12-30T11:09:17.335Z,0
2023-12-30T11:10:17.365Z,0
2023-12-30T11:11:17.359Z,0
2023-12-30T11:12:18.435Z,0
2023-12-30T11:13:21.577Z,0
2023-12-30T11:14:24.571Z,0
2023-12-30T11:16:17.556Z,0
2023-12-30T11:17:17.338Z,0
2023-12-30T11:18:17.457Z,0
2023-12-30T11:19:17.352Z,0
2023-12-30T11:20:17.326Z,0
2023-12-30T11:21:17.334Z,0
2023-12-30T11:22:17.337Z,0
2023-12-30T11:23:17.369Z,0
2023-12-30T11:24:17.339Z,0
2023-12-30T11:25:17.361Z,0
2023-12-30T11:26:17.338Z,0
2023-12-30T11:27:17.338Z,0
2023-12-30T11:28:17.353Z,0
2023-12-30T11:29:17.347Z,0
2023-12-30T11:30:17.401Z,0
2023-12-30T11:31:17.344Z,0
2023-12-30T11:32:17.327Z,0
2023-12-30T11:33:18.505Z,0
2023-12-30T11:34:21.674Z,0
2023-12-30T11:35:24.558Z,0
2023-12-30T11:37:17.447Z,0
2023-12-30T11:38:17.334Z,0
2023-12-30T11:39:17.353Z,0
2023-12-30T11:40:17.336Z,0
2023-12-30T11:41:17.380Z,0
2023-12-30T11:42:17.329Z,0
2023-12-30T11:43:17.358Z,0
2023-12-30T11:44:17.336Z,0
2023-12-30T11:45:17.332Z,0
2023-12-30T11:46:17.368Z,0
2023-12-30T11:47:17.337Z,0
2023-12-30T11:48:17.456Z,0
2023-12-30T11:49:17.381Z,0
2023-12-30T11:50:17.333Z,0
2023-12-30T11:51:17.335Z,0
2023-12-30T11:52:17.387Z,0
2023-12-30T11:53:17.335Z,0
2023-12-30T11:54:18.756Z,0
2023-12-30T11:55:21.717Z,0
2023-12-30T11:56:25.259Z,0
2023-12-30T11:58:17.568Z,0
2023-12-30T11:59:17.792Z,0
2023-12-30T12:00:17.333Z,0
2023-12-30T12:01:17.381Z,0
2023-12-30T12:02:17.746Z,0
2023-12-30T12:03:17.342Z,0
2023-12-30T12:04:17.393Z,0
2023-12-30T12:05:17.643Z,0
2023-12-30T12:06:17.424Z,0
2023-12-30T12:07:17.352Z,0
2023-12-30T12:08:17.439Z,0
2023-12-30T12:09:17.337Z,0
2023-12-30T12:10:17.354Z,0
2023-12-30T12:11:17.334Z,0
2023-12-30T12:12:17.333Z,0
2023-12-30T12:13:17.387Z,0
2023-12-30T12:14:17.354Z,0
2023-12-30T12:15:18.635Z,0
2023-12-30T12:16:21.875Z,0
2023-12-30T12:17:24.027Z,0
2023-12-30T12:18:17.402Z,0
2023-12-30T12:19:17.444Z,0
2023-12-30T12:20:21.647Z,0
2023-12-30T12:21:17.360Z,0
2023-12-30T12:22:17.484Z,0
2023-12-30T12:23:17.341Z,0
2023-12-30T12:24:17.335Z,0
2023-12-30T12:25:17.397Z,0
2023-12-30T12:26:17.366Z,0
2023-12-30T12:27:17.323Z,0
2023-12-30T12:28:17.351Z,0
2023-12-30T12:29:17.339Z,0
2023-12-30T12:30:17.353Z,0
2023-12-30T12:31:17.368Z,0
2023-12-30T12:32:17.343Z,0
2023-12-30T12:33:17.353Z,0
2023-12-30T12:34:17.373Z,0
2023-12-30T12:35:17.335Z,0
2023-12-30T12:36:18.745Z,0
2023-12-30T12:37:21.879Z,0
2023-12-30T12:38:23.705Z,0
2023-12-30T12:39:17.329Z,0
2023-12-30T12:40:17.701Z,0
2023-12-30T12:41:17.342Z,0
2023-12-30T12:42:23.567Z,0
2023-12-30T12:43:17.390Z,0
2023-12-30T12:44:17.335Z,0
2023-12-30T12:45:17.334Z,0
2023-12-30T12:46:17.336Z,0
2023-12-30T12:47:17.340Z,0
2023-12-30T12:48:17.381Z,0
2023-12-30T12:49:17.363Z,0
2023-12-30T12:50:17.336Z,0
2023-12-30T12:51:17.342Z,0
2023-12-30T12:52:17.359Z,0
2023-12-30T12:53:17.339Z,0
2023-12-30T12:54:17.329Z,0
2023-12-30T12:55:17.386Z,0
2023-12-30T12:56:17.336Z,0
2023-12-30T12:57:18.986Z,0
2023-12-30T12:58:21.989Z,0
2023-12-30T12:59:23.794Z,0
2023-12-30T13:00:17.343Z,0
2023-12-30T13:01:17.598Z,0
2023-12-30T13:02:17.529Z,0
2023-12-30T13:03:17.352Z,0
2023-12-30T13:04:17.448Z,0
2023-12-30T13:05:17.393Z,0
2023-12-30T13:06:17.378Z,0
2023-12-30T13:07:17.363Z,0
2023-12-30T13:08:17.328Z,0
2023-12-30T13:09:17.337Z,0
2023-12-30T13:10:17.354Z,0
2023-12-30T13:11:17.342Z,0
2023-12-30T13:12:17.320Z,0
2023-12-30T13:13:17.415Z,0
2023-12-30T13:14:17.332Z,0
2023-12-30T13:15:17.323Z,0
2023-12-30T13:16:17.368Z,0
2023-12-30T13:17:17.330Z,0
2023-12-30T13:18:19.004Z,0
2023-12-30T13:19:22.161Z,0
2023-12-30T13:20:23.867Z,0
2023-12-30T13:21:17.353Z,0
2023-12-30T13:22:17.340Z,0
2023-12-30T13:23:17.493Z,0
2023-12-30T13:24:17.332Z,0
2023-12-30T13:25:17.365Z,0
2023-12-30T13:26:17.509Z,0
2023-12-30T13:27:17.333Z,0
2023-12-30T13:28:17.367Z,0
2023-12-30T13:29:17.335Z,0
2023-12-30T13:30:17.331Z,0
2023-12-30T13:31:17.519Z,0
2023-12-30T13:32:17.354Z,0
2023-12-30T13:33:17.492Z,0
2023-12-30T13:34:17.388Z,0
2023-12-30T13:35:17.347Z,0
2023-12-30T13:36:17.349Z,0
2023-12-30T13:37:17.318Z,0
2023-12-30T13:38:17.313Z,0
2023-12-30T13:39:19.591Z,0
2023-12-30T13:40:22.101Z,0
2023-12-30T13:41:23.970Z,0
2023-12-30T13:42:17.318Z,0
2023-12-30T13:43:17.329Z,0
2023-12-30T13:44:17.319Z,9.59
2023-12-30T13:45:17.317Z,9.69
2023-12-30T13:46:17.365Z,9.75
2023-12-30T13:47:17.324Z,9.75
2023-12-30T13:48:17.338Z,9.75
2023-12-30T13:49:17.487Z,9.8
2023-12-30T13:50:17.334Z,9.81
2023-12-30T13:51:17.480Z,9.84
2023-12-30T13:52:17.484Z,9.86
2023-12-30T13:53:17.531Z,9.9
2023-12-30T13:54:17.325Z,9.91
2023-12-30T13:55:17.333Z,9.94
2023-12-30T13:56:19.425Z,9.98
2023-12-30T13:57:17.360Z,9.99
2023-12-30T13:58:17.368Z,10.01
2023-12-30T13:59:17.328Z,10
2023-12-30T14:00:19.264Z,10.02
2023-12-30T14:01:22.472Z,9.93
2023-12-30T14:02:24.110Z,9.9
2023-12-30T14:03:17.616Z,9.9
2023-12-30T14:04:17.349Z,9.89
2023-12-30T14:05:17.331Z,9.91
2023-12-30T14:06:17.415Z,9.92
2023-12-30T14:07:17.360Z,9.92
2023-12-30T14:08:17.337Z,9.91
2023-12-30T14:09:17.320Z,9.94
2023-12-30T14:10:17.340Z,9.99
2023-12-30T14:11:17.353Z,10.04
2023-12-30T14:12:17.333Z,10.1
2023-12-30T14:13:17.442Z,10.15
2023-12-30T14:14:17.602Z,10.21
2023-12-30T14:15:17.480Z,10.26
2023-12-30T14:16:17.372Z,10.29
2023-12-30T14:17:17.619Z,10.33
2023-12-30T14:18:17.418Z,10.33
2023-12-30T14:19:17.700Z,10.38
2023-12-30T14:20:17.556Z,10.44
2023-12-30T14:21:19.405Z,10.43
2023-12-30T14:22:22.225Z,10.43
2023-12-30T14:23:24.093Z,10.41
2023-12-30T14:24:17.734Z,10.41
2023-12-30T14:25:18.132Z,10.39
2023-12-30T14:26:17.678Z,10.42
2023-12-30T14:27:17.660Z,10.44
2023-12-30T14:28:17.753Z,10.44
2023-12-30T14:29:17.330Z,10.47
2023-12-30T14:30:17.352Z,10.5
2023-12-30T14:31:17.398Z,10.52
2023-12-30T14:32:17.334Z,10.53
2023-12-30T14:33:17.420Z,10.54
2023-12-30T14:34:17.485Z,10.54
2023-12-30T14:35:17.329Z,10.52
2023-12-30T14:36:17.347Z,10.52
2023-12-30T14:37:17.347Z,10.5
2023-12-30T14:38:17.339Z,10.49
2023-12-30T14:39:17.345Z,10.46
2023-12-30T14:40:17.686Z,10.44
2023-12-30T14:41:17.372Z,10.39
2023-12-30T14:42:17.332Z,10.35
2023-12-30T14:43:17.750Z,10.32
2023-12-30T14:44:20.770Z,10.29
2023-12-30T14:45:23.640Z,10.24
2023-12-30T14:47:17.388Z,10.2
2023-12-30T14:48:17.328Z,10.17
2023-12-30T14:49:17.399Z,10.15
2023-12-30T14:50:17.380Z,10.14
2023-12-30T14:51:17.352Z,10.1
2023-12-30T14:52:17.523Z,10.08
2023-12-30T14:53:17.421Z,10.08
2023-12-30T14:54:17.505Z,10.07
2023-12-30T14:55:17.579Z,10.04
2023-12-30T14:56:17.468Z,10.02
2023-12-30T14:57:17.513Z,10
2023-12-30T14:58:17.562Z,10.01
2023-12-30T14:59:17.611Z,10
2023-12-30T15:00:17.716Z,9.98
2023-12-30T15:01:18.113Z,9.96
2023-12-30T15:02:17.544Z,9.97
2023-12-30T15:03:17.656Z,9.96
2023-12-30T15:04:17.769Z,9.95
2023-12-30T15:05:21.008Z,9.95